logo tempoitalia

Diretta Meteo Teruel, Spagnalunedì 31 agosto ore 07:00

Mappa
Sereno 16 °C Sereno 24 Ore: T.min 14 T.max 33
Ponente Nord/NOvest Km/h 13 Punto di rugiada: 9 °C Umidità: 63% Visibilità: 10 Km
Il sole sorge alle: 07:31 Il sole tramonta alle: 20:39
31 Agosto 2026 07:00 tempo osservato: Sereno Sereno 16 63 1022 vento: Nord N/NO 13
31 Agosto 2026 06:30 tempo osservato: Sereno Sereno 15 47 1022 vento: Nord NO 11.1
31 Agosto 2026 06:00 tempo osservato: Sereno Sereno 16 44 1022 vento: Nord O/NO 7.4
31 Agosto 2026 05:30 tempo osservato: Sereno Sereno 17 39 1022 vento: Nord NO 7.4
31 Agosto 2026 05:00 tempo osservato: Sereno Sereno 17 39 1022 vento: Nord N 5.5
31 Agosto 2026 04:30 tempo osservato: Sereno Sereno 17 39 1022 vento: Nord N 3.7
31 Agosto 2026 04:00 tempo osservato: Sereno Sereno 17 39 1022 vento: Nord O/NO 7.4
31 Agosto 2026 03:30 tempo osservato: Sereno Sereno 17 39 1022 vento: Nord O 13
31 Agosto 2026 03:00 tempo osservato: Sereno Sereno 18 36 1022 vento: Nord N 5.5
31 Agosto 2026 02:30 tempo osservato: Sereno Sereno 18 42 1022 vento: Nord N 5.5
31 Agosto 2026 02:00 tempo osservato: Sereno Sereno 19 48 1022 vento: Nord N 5.5
31 Agosto 2026 01:30 tempo osservato: Sereno Sereno 20 42 1022 vento: Nord N 5.5
31 Agosto 2026 01:00 tempo osservato: Sereno Sereno 20 45 1022 vento: Nord S/SE 7.4
31 Agosto 2026 00:30 tempo osservato: Sereno Sereno 20 49 1022 vento: Nord SE 7.4
31 Agosto 2026 00:00 tempo osservato: Sereno Sereno 21 43 1022 vento: Nord SE 7.4
30 Agosto 2026 23:30 tempo osservato: Sereno Sereno 21 43 1022 vento: Nord N 5.5
30 Agosto 2026 23:00 tempo osservato: Sereno Sereno 22 26 1021 vento: Nord N 3.7
30 Agosto 2026 22:30 tempo osservato: Sereno Sereno 23 25 1021 vento: Nord N 3.7
30 Agosto 2026 22:00 tempo osservato: Sereno Sereno 25 22 1021 vento: Nord O 14.8
30 Agosto 2026 21:30 tempo osservato: Sereno Sereno 25 22 1020 vento: Nord O 13
30 Agosto 2026 21:00 tempo osservato: Sereno Sereno 27 19 1020 vento: Nord O 16.7
30 Agosto 2026 20:30 tempo osservato: Sereno Sereno 29 17 1019 vento: Nord O 18.5
30 Agosto 2026 20:00 tempo osservato: Sereno Sereno 31 14 1019 vento: Nord O 18.5
30 Agosto 2026 19:30 tempo osservato: Sereno Sereno 31 15 1019 vento: Nord O 20.3
30 Agosto 2026 19:00 tempo osservato: Sereno Sereno 32 13 1019 vento: Nord O/SO 13
30 Agosto 2026 18:30 tempo osservato: Sereno Sereno 32 13 1019 vento: Nord O 20.3
30 Agosto 2026 18:00 tempo osservato: Sereno Sereno 32 13 1019 vento: Nord SO 13
30 Agosto 2026 17:30 tempo osservato: Sereno Sereno 32 12 1019 vento: Nord S/SO 22.2
30 Agosto 2026 17:00 tempo osservato: Sereno Sereno 33 13 1019 vento: Nord O/SO 16.7
30 Agosto 2026 16:30 tempo osservato: Sereno Sereno 31 14 1019 vento: Nord SO 11.1
30 Agosto 2026 16:00 tempo osservato: Sereno Sereno 31 14 1020 vento: Nord S/SO 16.7
30 Agosto 2026 15:30 tempo osservato: Sereno Sereno 32 13 1020 vento: Nord O 22.2
30 Agosto 2026 15:00 tempo osservato: Sereno Sereno 31 14 1020 vento: Nord SO 22.2
30 Agosto 2026 14:30 tempo osservato: Sereno Sereno 31 15 1020 vento: Nord S 20.3
30 Agosto 2026 14:00 tempo osservato: Sereno Sereno 30 15 1021 vento: Nord S/SO 24
30 Agosto 2026 13:30 tempo osservato: Sereno Sereno 30 15 1021 vento: Nord SO 14.8
30 Agosto 2026 13:00 tempo osservato: Sereno Sereno 30 17 1021 vento: Nord N 5.5
30 Agosto 2026 12:30 tempo osservato: Sereno Sereno 28 20 1022 vento: Nord SE 13
30 Agosto 2026 12:00 tempo osservato: Sereno Sereno 26 25 1022 vento: Nord SE 14.8
30 Agosto 2026 11:30 tempo osservato: Sereno Sereno 24 31 1022 vento: Nord SE 11.1
30 Agosto 2026 11:00 tempo osservato: Sereno Sereno 22 37 1022 vento: Nord SE 11.1
30 Agosto 2026 10:30 tempo osservato: Sereno Sereno 20 42 1022 vento: Nord SE 7.4
30 Agosto 2026 10:00 tempo osservato: Sereno Sereno 18 45 1022 vento: Nord N 5.5
30 Agosto 2026 09:30 tempo osservato: Sereno Sereno 17 45 1022 vento: Nord N 3.7
30 Agosto 2026 09:00 tempo osservato: Sereno Sereno 16 47 1022 vento: Nord N 0
30 Agosto 2026 08:30 tempo osservato: Sereno Sereno 15 47 1022 vento: Nord N 0
30 Agosto 2026 08:00 tempo osservato: Sereno Sereno 14 50 1022 vento: Nord N 0